Flight Track Log - Related Links

Times and Time Zones

All times are in EDT time to prevent confusion due to time zone crossing. See the CTL15 flight status page for this flight to view local times or setup timezone preferences in your user account.

Time Position Orientation Groundspeed Altitude Reporting Facility
EDT Latitude Longitude Course Direction KTS MPH feet Rate Location/Type
Mon 07:39:26 PM 39.5931 -84.2364 46° Northeast 116 133 2,700  Level Indianapolis Center
Mon 07:39:57 PM 39.6025 -84.2239 46° Northeast 118 136 3,200 865 Climbing Indianapolis Center
Mon 07:41:10 PM 39.6311 -84.1800 50° Northeast 124 143 4,200 893 Climbing Indianapolis Center
Mon 07:41:58 PM 39.6525 -84.1492 48° Northeast 134 154 5,000 390 Climbing Indianapolis Center
Mon 07:43:13 PM 39.6831 -84.1014 50° Northeast 140 161 5,000 109 Level Indianapolis Center
Mon 07:43:48 PM 39.7025 -84.0717 50° Northeast 168 193 5,200 97 Climbing Indianapolis Center
Mon 07:44:15 PM 39.7144 -84.0536 49° Northeast 158 182 5,100  Descending Indianapolis Center
Mon 07:45:00 PM 39.7406 -84.0142 49° Northeast 174 200 5,200  Climbing Indianapolis Center
Mon 07:45:17 PM 39.7469 -84.0061 44° Northeast 169 194 5,100 -90 Descending Indianapolis Center
Mon 07:46:07 PM 39.7783 -83.9594 49° Northeast 178 205 5,100 -49 Level Indianapolis Center
Mon 07:47:20 PM 39.8103 -83.9081 51° Northeast 174 200 5,000 365 Descending Indianapolis Center
Mon 07:48:02 PM 39.8314 -83.8683 55° Northeast 150 173 5,800 871 Climbing Indianapolis Center
Mon 07:48:22 PM 39.8372 -83.8600 48° Northeast 169 194 5,900 1,082 Climbing Indianapolis Center
Mon 07:49:03 PM 39.8594 -83.8286 47° Northeast 139 160 6,900 1,180 Climbing Indianapolis Center
Mon 07:49:23 PM 39.8681 -83.8192 40° Northeast 146 168 7,100 367 Climbing Indianapolis Center
Mon 07:49:52 PM 39.8800 -83.8039 44° Northeast 136 157 7,200  Climbing Indianapolis Center
Mon 07:50:25 PM 39.8994 -83.7822 41° Northeast 144 166 7,100  Descending Indianapolis Center
Mon 07:50:52 PM 39.9167 -83.7625 41° Northeast 174 200 7,200  Climbing Indianapolis Center
Mon 07:51:27 PM 39.9353 -83.7394 44° Northeast 161 185 7,100  Descending Indianapolis Center
Mon 07:51:47 PM 39.9467 -83.7253 44° Northeast 171 197 7,200  Climbing Indianapolis Center
Mon 07:52:28 PM 39.9714 -83.6958 42° Northeast 170 196 7,100  Descending Indianapolis Center
Mon 07:53:00 PM 39.9903 -83.6736 42° Northeast 174 200 7,200  Climbing Indianapolis Center
Mon 07:53:30 PM 40.0083 -83.6531 41° Northeast 173 199 7,100  Descending Indianapolis Center
Mon 07:54:00 PM 40.0272 -83.6292 44° Northeast 176 203 7,200  Climbing Indianapolis Center
Mon 07:54:32 PM 40.0450 -83.6094 40° Northeast 175 201 7,100  Descending Indianapolis Center
Mon 07:54:55 PM 40.0614 -83.5925 38° Northeast 175 201 7,200  Climbing Indianapolis Center
Mon 07:55:33 PM 40.0831 -83.5686 40° Northeast 175 201 7,100 -200 Descending Indianapolis Center
Mon 07:55:55 PM 40.0978 -83.5508 43° Northeast 177 204 7,000  Descending Indianapolis Center
Mon 07:56:35 PM 40.1189 -83.5242 44° Northeast 175 201 7,100 90 Climbing Indianapolis Center
Mon 07:57:02 PM 40.1369 -83.5011 44° Northeast 174 200 7,100  Level Indianapolis Center
Mon 07:57:36 PM 40.1553 -83.4792 42° Northeast 176 203 7,100 98 Level Indianapolis Center
Mon 07:58:03 PM 40.1717 -83.4589 43° Northeast 173 199 7,200  Climbing Indianapolis Center
Mon 07:58:38 PM 40.1894 -83.4350 46° Northeast 172 198 7,100 -91 Descending Indianapolis Center
Mon 07:59:09 PM 40.2108 -83.4092 43° Northeast 179 206 7,100  Level Indianapolis Center
Mon 07:59:40 PM 40.2264 -83.3897 44° Northeast 178 205 7,100 65 Level Indianapolis Center
Mon 08:00:41 PM 40.2619 -83.3439 45° Northeast 178 205 7,200 -49 Climbing Indianapolis Center
Mon 08:01:43 PM 40.2967 -83.2992 44° Northeast 174 200 7,000 -97 Descending Indianapolis Center
Mon 08:02:45 PM 40.3386 -83.2428 46° Northeast 182 209 7,000 49 Level Indianapolis Center
Mon 08:03:46 PM 40.3731 -83.1947 47° Northeast 180 207 7,100 49 Climbing Indianapolis Center
Mon 08:04:48 PM 40.4094 -83.1494 43° Northeast 179 206 7,100 -49 Level Indianapolis Center
Mon 08:05:49 PM 40.4464 -83.1044 43° Northeast 180 207 7,000 -49 Descending Indianapolis Center
Mon 08:06:51 PM 40.4814 -83.0569 46° Northeast 180 207 7,000 48 Level Indianapolis Center
Mon 08:07:53 PM 40.5164 -83.0122 44° Northeast 179 206 7,100  Climbing Indianapolis Center
Mon 08:08:55 PM 40.5528 -82.9658 44° Northeast 180 207 7,000 -49 Descending Indianapolis Center
Mon 08:09:56 PM 40.5886 -82.9189 45° Northeast 180 207 7,000  Level Indianapolis Center
Mon 08:10:58 PM 40.6233 -82.8717 46° Northeast 178 205 7,000 48 Level Indianapolis Center
Mon 08:12:00 PM 40.6672 -82.8203 42° Northeast 179 206 7,100 -195 Climbing Indianapolis Center
Mon 08:13:01 PM 40.7028 -82.7739 45° Northeast 178 205 6,600 -585 Descending Indianapolis Center
Mon 08:14:03 PM 40.7453 -82.7250 41° Northeast 197 227 5,900 -532 Descending Indianapolis Center
Mon 08:15:05 PM 40.7836 -82.6736 45° Northeast 195 224 5,500 -387 Descending Indianapolis Center

Login

Don't have an account? Register now (free) for customized features, flight alerts, and more!